createdAt,value
2018-03-02T00:00:42.010Z,-0.10
2018-03-02T00:03:08.959Z,-0.10
2018-03-02T00:05:35.805Z,0.00
2018-03-02T00:08:02.693Z,-0.10
2018-03-02T00:10:29.639Z,-0.20
2018-03-02T00:12:56.600Z,-0.20
2018-03-02T00:15:23.548Z,-0.20
2018-03-02T00:17:50.391Z,-0.10
2018-03-02T00:20:17.301Z,-0.20
2018-03-02T00:22:44.249Z,-0.30
2018-03-02T00:25:11.089Z,-0.30
2018-03-02T00:27:38.237Z,-0.20
2018-03-02T00:30:05.095Z,-0.20
2018-03-02T00:32:31.956Z,-0.20
2018-03-02T00:34:58.828Z,-0.30
2018-03-02T00:37:25.778Z,-0.30
2018-03-02T00:39:52.628Z,-0.40
2018-03-02T00:42:19.500Z,-0.50
2018-03-02T00:44:46.344Z,-0.40
2018-03-02T00:47:13.203Z,-0.60
2018-03-02T00:49:40.159Z,-0.70
2018-03-02T00:52:07.016Z,-0.70
2018-03-02T00:54:33.868Z,-0.70
2018-03-02T00:57:00.832Z,-0.70
2018-03-02T00:59:27.676Z,-0.70
2018-03-02T01:01:54.555Z,-0.70
2018-03-02T01:04:21.507Z,-0.80
2018-03-02T01:06:48.353Z,-0.90
2018-03-02T01:09:15.328Z,-0.90
2018-03-02T01:11:42.183Z,-0.90
2018-03-02T01:14:09.015Z,-0.90
2018-03-02T01:16:35.992Z,-1.00
2018-03-02T01:19:02.845Z,-1.30
2018-03-02T01:21:29.708Z,-1.30
2018-03-02T01:23:56.664Z,-1.50
2018-03-02T01:26:23.515Z,-1.50
2018-03-02T01:28:50.360Z,-1.30
2018-03-02T01:31:17.232Z,-1.30
2018-03-02T01:33:44.112Z,-1.30
2018-03-02T01:36:11.053Z,-1.40
2018-03-02T01:38:37.904Z,-1.40
2018-03-02T01:41:04.972Z,-1.40
2018-03-02T01:43:31.924Z,-1.50
2018-03-02T01:45:58.821Z,-1.60
2018-03-02T01:48:25.737Z,-1.70
2018-03-02T01:50:52.963Z,-2.10
2018-03-02T01:53:19.868Z,-2.10
2018-03-02T01:55:46.732Z,-2.20
2018-03-02T01:58:13.595Z,-2.10
2018-03-02T02:00:40.438Z,-2.00
2018-03-02T02:03:07.396Z,-2.00
2018-03-02T02:05:34.264Z,-2.10
2018-03-02T02:08:01.108Z,-2.00
2018-03-02T02:10:27.976Z,-2.10
2018-03-02T02:12:54.951Z,-2.00
2018-03-02T02:15:21.810Z,-1.90
2018-03-02T02:17:48.662Z,-1.80
2018-03-02T02:20:15.604Z,-1.70
2018-03-02T02:22:42.450Z,-1.60
2018-03-02T02:25:09.319Z,-1.60
2018-03-02T02:27:36.174Z,-1.70
2018-03-02T02:30:03.023Z,-1.80
2018-03-02T02:32:29.880Z,-2.10
2018-03-02T02:34:56.721Z,-2.20
2018-03-02T02:37:23.603Z,-2.10
2018-03-02T02:39:50.452Z,-2.10
2018-03-02T02:42:17.320Z,-2.10
2018-03-02T02:44:44.194Z,-2.20
2018-03-02T02:47:11.127Z,-2.30
2018-03-02T02:49:37.984Z,-2.20
2018-03-02T02:52:04.841Z,-2.10
2018-03-02T02:54:31.708Z,-2.10
2018-03-02T02:56:58.552Z,-2.10
2018-03-02T02:59:25.517Z,-2.30
2018-03-02T03:01:52.365Z,-2.40
2018-03-02T03:04:19.328Z,-2.50
2018-03-02T03:06:46.197Z,-2.60
2018-03-02T03:09:13.048Z,-2.60
2018-03-02T03:11:39.998Z,-2.60
2018-03-02T03:14:06.856Z,-2.60
2018-03-02T03:16:33.812Z,-2.60
2018-03-02T03:19:00.677Z,-2.60
2018-03-02T03:21:27.528Z,-2.50
2018-03-02T03:23:54.491Z,-2.60
2018-03-02T03:26:21.452Z,-2.50
2018-03-02T03:28:48.410Z,-2.50
2018-03-02T03:31:15.257Z,-2.30
2018-03-02T03:33:42.220Z,-2.30
2018-03-02T03:36:09.080Z,-2.30
2018-03-02T03:38:36.042Z,-2.30
2018-03-02T03:41:03.039Z,-2.30
2018-03-02T03:43:29.964Z,-2.50
2018-03-02T03:45:56.805Z,-2.50
2018-03-02T03:48:23.664Z,-2.60
2018-03-02T03:50:50.632Z,-2.60
2018-03-02T03:53:17.604Z,-2.40
2018-03-02T03:55:45.296Z,-2.40
2018-03-02T03:58:12.235Z,-2.40
2018-03-02T04:00:39.092Z,-2.50
2018-03-02T04:03:05.940Z,-2.50
2018-03-02T04:05:33.001Z,-2.50
2018-03-02T04:07:59.860Z,-2.60
2018-03-02T04:10:26.704Z,-2.60
2018-03-02T04:12:53.672Z,-2.60
2018-03-02T04:15:20.532Z,-2.50
2018-03-02T04:17:47.398Z,-2.50
2018-03-02T04:20:14.464Z,-2.60
2018-03-02T04:22:41.407Z,-2.70
2018-03-02T04:25:08.256Z,-2.80
2018-03-02T04:27:35.228Z,-2.70
2018-03-02T04:30:02.084Z,-2.80
2018-03-02T04:32:28.942Z,-2.70
2018-03-02T04:34:55.899Z,-2.70
2018-03-02T04:37:22.764Z,-3.10
2018-03-02T04:39:49.723Z,-3.00
2018-03-02T04:42:16.694Z,-2.80
2018-03-02T04:44:43.638Z,-2.60
2018-03-02T04:47:10.476Z,-2.40
2018-03-02T04:49:37.360Z,-2.30
2018-03-02T04:52:04.321Z,-2.40
2018-03-02T04:54:31.171Z,-2.50
2018-03-02T04:56:58.043Z,-2.60
2018-03-02T04:59:24.903Z,-2.80
2018-03-02T05:01:51.847Z,-2.90
2018-03-02T05:04:18.796Z,-3.00
2018-03-02T05:06:45.672Z,-3.10
2018-03-02T05:09:12.531Z,-3.00
2018-03-02T05:11:39.570Z,-2.90
2018-03-02T05:14:06.405Z,-2.90
2018-03-02T05:16:33.288Z,-3.00
2018-03-02T05:19:00.142Z,-3.10
2018-03-02T05:21:27.011Z,-3.10
2018-03-02T05:23:53.863Z,-3.10
2018-03-02T05:26:20.739Z,-3.10
2018-03-02T05:28:47.588Z,-3.00
2018-03-02T05:31:14.534Z,-2.90
2018-03-02T05:33:41.392Z,-2.90
2018-03-02T05:36:08.344Z,-3.00
2018-03-02T05:38:35.187Z,-2.90
2018-03-02T05:41:02.179Z,-3.00
2018-03-02T05:43:29.020Z,-3.10
2018-03-02T05:45:56.023Z,-3.10
2018-03-02T05:48:22.862Z,-3.10
2018-03-02T05:50:49.803Z,-3.20
2018-03-02T05:53:16.775Z,-3.10
2018-03-02T05:55:43.668Z,-3.00
2018-03-02T05:58:10.510Z,-3.00
2018-03-02T06:00:37.396Z,-3.00
2018-03-02T06:03:04.693Z,-2.90
2018-03-02T06:05:31.661Z,-2.90
2018-03-02T06:07:58.512Z,-2.90
2018-03-02T06:10:25.383Z,-3.00
2018-03-02T06:12:52.329Z,-2.90
2018-03-02T06:15:19.199Z,-3.00
2018-03-02T06:17:46.064Z,-3.20
2018-03-02T06:20:13.112Z,-3.40
2018-03-02T06:22:40.088Z,-3.40
2018-03-02T06:25:06.948Z,-3.20
2018-03-02T06:27:33.877Z,-3.10
2018-03-02T06:30:00.832Z,-3.00
2018-03-02T06:32:27.691Z,-3.10
2018-03-02T06:34:54.573Z,-3.20
2018-03-02T06:37:21.512Z,-3.30
2018-03-02T06:39:48.380Z,-3.30
2018-03-02T06:42:15.236Z,-3.30
2018-03-02T06:44:42.201Z,-3.30
2018-03-02T06:47:09.151Z,-3.30
2018-03-02T06:49:36.019Z,-3.40
2018-03-02T06:52:02.872Z,-3.50
2018-03-02T06:54:29.733Z,-3.70
2018-03-02T06:56:56.689Z,-3.50
2018-03-02T06:59:23.537Z,-3.40
2018-03-02T07:01:50.487Z,-3.30
2018-03-02T07:04:17.434Z,-3.10
2018-03-02T07:06:44.308Z,-3.00
2018-03-02T07:09:11.159Z,-3.00
2018-03-02T07:11:38.115Z,-3.00
2018-03-02T07:14:04.962Z,-2.90
2018-03-02T07:16:32.248Z,-3.00
2018-03-02T07:18:59.206Z,-3.00
2018-03-02T07:21:26.070Z,-3.00
2018-03-02T07:23:52.962Z,-3.00
2018-03-02T07:26:19.849Z,-3.10
2018-03-02T07:28:47.095Z,-3.30
2018-03-02T07:31:13.938Z,-3.30
2018-03-02T07:33:40.803Z,-3.30
2018-03-02T07:36:07.666Z,-3.20
2018-03-02T07:38:34.518Z,-3.10
2018-03-02T07:41:01.379Z,-3.30
2018-03-02T07:43:28.288Z,-3.30
2018-03-02T07:45:55.160Z,-3.20
2018-03-02T07:48:22.004Z,-3.30
2018-03-02T07:50:49.090Z,-3.30
2018-03-02T07:53:16.218Z,-3.00
2018-03-02T07:55:43.062Z,-2.70
2018-03-02T07:58:10.036Z,-2.60
2018-03-02T08:00:36.939Z,-2.60
2018-03-02T08:03:03.852Z,-2.70
2018-03-02T08:05:30.740Z,-2.60
2018-03-02T08:07:57.668Z,-2.60
2018-03-02T08:10:24.623Z,-2.40
2018-03-02T08:12:51.864Z,-2.30
2018-03-02T08:15:19.109Z,-2.50
2018-03-02T08:17:46.032Z,-2.50
2018-03-02T08:20:12.994Z,-2.50
2018-03-02T08:22:39.840Z,-2.60
2018-03-02T08:25:06.791Z,-2.80
2018-03-02T08:27:33.658Z,-2.80
2018-03-02T08:30:00.496Z,-2.70
2018-03-02T08:32:27.474Z,-2.60
2018-03-02T08:34:54.328Z,-2.60
2018-03-02T08:37:21.176Z,-2.50
2018-03-02T08:39:48.084Z,-2.40
2018-03-02T08:42:15.151Z,-2.20
2018-03-02T08:44:42.000Z,-2.40
2018-03-02T08:47:08.920Z,-2.20
2018-03-02T08:49:35.837Z,-2.40
2018-03-02T08:52:02.676Z,-2.50
2018-03-02T08:54:29.568Z,-2.70
2018-03-02T08:56:56.819Z,-2.90
2018-03-02T08:59:23.663Z,-2.90
2018-03-02T09:01:50.523Z,-2.90
2018-03-02T09:04:17.404Z,-2.70
2018-03-02T09:06:44.654Z,-2.80
2018-03-02T09:09:11.895Z,-2.50
2018-03-02T09:11:38.820Z,-2.50
2018-03-02T09:14:05.886Z,-2.20
2018-03-02T09:16:32.737Z,-2.10
2018-03-02T09:18:59.679Z,-2.20
2018-03-02T09:21:26.552Z,-2.00
2018-03-02T09:23:53.405Z,-2.00
2018-03-02T09:26:20.443Z,-2.20
2018-03-02T09:28:47.332Z,-2.10
2018-03-02T09:31:14.192Z,-2.00
2018-03-02T09:33:41.057Z,-2.10
2018-03-02T09:36:07.904Z,-2.10
2018-03-02T09:38:34.847Z,-2.00
2018-03-02T09:41:02.129Z,-1.80
2018-03-02T09:43:28.976Z,-1.80
2018-03-02T09:45:55.844Z,-1.70
2018-03-02T09:48:22.801Z,-1.50
2018-03-02T09:50:49.672Z,-1.40
2018-03-02T09:53:16.520Z,-1.40
2018-03-02T09:55:43.473Z,-1.40
2018-03-02T09:58:10.423Z,-1.40
2018-03-02T10:00:37.330Z,-1.30
2018-03-02T10:03:04.203Z,-1.40
2018-03-02T10:05:31.070Z,-1.50
2018-03-02T10:07:57.996Z,-1.40
2018-03-02T10:10:24.859Z,-1.50
2018-03-02T10:12:51.776Z,-1.30
2018-03-02T10:15:18.732Z,-1.40
2018-03-02T10:17:45.577Z,-1.50
2018-03-02T10:20:12.419Z,-1.40
2018-03-02T10:22:39.693Z,-1.60
2018-03-02T10:25:07.006Z,-1.50
2018-03-02T10:27:33.935Z,-1.50
2018-03-02T10:30:00.904Z,-1.40
2018-03-02T10:32:27.854Z,-1.80
2018-03-02T10:34:55.129Z,-1.60
2018-03-02T10:37:22.088Z,-1.50
2018-03-02T10:39:48.952Z,-1.30
2018-03-02T10:42:15.917Z,-1.00
2018-03-02T10:44:42.789Z,-0.70
2018-03-02T10:47:09.653Z,-0.50
2018-03-02T10:49:36.597Z,-0.80
2018-03-02T10:52:03.465Z,-1.10
2018-03-02T10:54:30.321Z,-1.10
2018-03-02T10:56:57.239Z,-1.20
2018-03-02T10:59:24.104Z,-1.20
2018-03-02T11:01:50.983Z,-1.10
2018-03-02T11:04:17.818Z,-0.90
2018-03-02T11:06:44.683Z,-0.70
2018-03-02T11:09:11.632Z,-0.50
2018-03-02T11:11:38.532Z,-0.50
2018-03-02T11:14:05.446Z,-0.50
2018-03-02T11:16:32.304Z,-0.50
2018-03-02T11:18:59.271Z,-0.40
2018-03-02T11:21:26.123Z,-0.30
2018-03-02T11:23:53.116Z,-0.10
2018-03-02T11:26:20.145Z,-0.30
2018-03-02T11:28:47.002Z,-0.50
2018-03-02T11:31:13.887Z,-0.40
2018-03-02T11:33:40.815Z,-0.20
2018-03-02T11:36:08.041Z,0.30
2018-03-02T11:38:34.999Z,0.30
2018-03-02T11:41:01.886Z,0.30
2018-03-02T11:43:28.723Z,0.10
2018-03-02T11:45:56.082Z,0.20
2018-03-02T11:48:22.941Z,0.20
2018-03-02T11:50:50.042Z,0.20
2018-03-02T11:53:17.008Z,0.20
2018-03-02T11:55:43.865Z,0.30
2018-03-02T11:58:10.705Z,0.50
2018-03-02T12:00:37.564Z,0.60
2018-03-02T12:03:04.440Z,0.80
2018-03-02T12:05:31.297Z,0.80
2018-03-02T12:07:58.244Z,0.90
2018-03-02T12:10:25.113Z,1.00
2018-03-02T12:12:51.954Z,0.90
2018-03-02T12:15:18.800Z,0.80
2018-03-02T12:17:45.686Z,0.80
2018-03-02T12:20:12.522Z,0.80
2018-03-02T12:22:39.434Z,0.90
2018-03-02T12:25:06.628Z,1.00
2018-03-02T12:27:33.918Z,0.90
2018-03-02T12:30:00.787Z,0.90
2018-03-02T12:32:27.664Z,0.90
2018-03-02T12:34:54.588Z,1.00
2018-03-02T12:37:21.446Z,1.10
2018-03-02T12:39:48.406Z,1.20
2018-03-02T12:42:15.275Z,1.00
2018-03-02T12:44:42.236Z,0.80
2018-03-02T12:47:09.101Z,0.80
2018-03-02T12:49:35.950Z,0.90
2018-03-02T12:52:02.796Z,0.70
2018-03-02T12:54:29.715Z,0.70
2018-03-02T12:56:56.506Z,0.80
2018-03-02T12:59:23.348Z,0.90
2018-03-02T13:01:50.320Z,1.10
2018-03-02T13:04:17.199Z,1.20
2018-03-02T13:06:44.052Z,1.40
2018-03-02T13:09:10.985Z,1.60
2018-03-02T13:11:37.889Z,1.50
2018-03-02T13:14:04.853Z,1.30
2018-03-02T13:16:31.696Z,1.30
2018-03-02T13:18:58.661Z,1.50
2018-03-02T13:21:25.485Z,1.80
2018-03-02T13:23:52.344Z,1.90
2018-03-02T13:26:31.199Z,2.00
2018-03-02T13:28:58.057Z,1.90
2018-03-02T13:31:24.904Z,1.70
2018-03-02T13:34:03.500Z,1.80
2018-03-02T13:36:30.398Z,1.90
2018-03-02T13:38:57.263Z,1.80
2018-03-02T13:41:35.888Z,2.00
2018-03-02T13:44:02.752Z,2.20
2018-03-02T13:46:29.596Z,2.30
2018-03-02T13:49:08.421Z,2.50
2018-03-02T13:51:35.281Z,2.20
2018-03-02T13:54:02.130Z,2.00
2018-03-02T13:56:40.888Z,2.20
2018-03-02T13:59:07.726Z,2.30
2018-03-02T14:01:34.572Z,2.30
2018-03-02T14:04:13.296Z,2.10
2018-03-02T14:06:40.564Z,2.00
2018-03-02T14:09:07.809Z,2.10
2018-03-02T14:11:34.663Z,2.10
2018-03-02T14:14:01.583Z,2.30
2018-03-02T14:16:28.423Z,2.20
2018-03-02T14:18:55.291Z,2.10
2018-03-02T14:21:22.241Z,2.00
2018-03-02T14:23:49.496Z,2.10
2018-03-02T14:26:16.340Z,2.10
2018-03-02T14:28:43.585Z,2.20
2018-03-02T14:31:10.449Z,2.20
2018-03-02T14:33:37.692Z,2.00
2018-03-02T14:36:04.532Z,2.00
2018-03-02T14:38:31.417Z,1.90
2018-03-02T14:40:58.277Z,1.70
2018-03-02T14:43:25.189Z,1.70
2018-03-02T14:45:52.062Z,1.80
2018-03-02T14:48:19.009Z,2.00
2018-03-02T14:50:45.883Z,1.90
2018-03-02T14:53:12.736Z,1.90
2018-03-02T14:55:39.584Z,1.90
2018-03-02T14:58:06.518Z,1.80
2018-03-02T15:00:33.392Z,1.90
2018-03-02T15:03:00.264Z,2.00
2018-03-02T15:05:27.319Z,2.00
2018-03-02T15:07:54.159Z,2.10
2018-03-02T15:10:21.007Z,2.10
2018-03-02T15:12:48.281Z,2.20
2018-03-02T15:15:15.196Z,2.20
2018-03-02T15:17:42.042Z,2.20
2018-03-02T15:20:08.905Z,2.40
2018-03-02T15:22:35.828Z,2.50
2018-03-02T15:25:02.692Z,2.50
2018-03-02T15:27:29.574Z,2.70
2018-03-02T15:29:56.421Z,2.70
2018-03-02T15:32:23.264Z,2.70
2018-03-02T15:34:50.133Z,2.80
2018-03-02T15:37:17.098Z,2.80
2018-03-02T15:39:44.108Z,2.80
2018-03-02T15:42:11.378Z,2.90
2018-03-02T15:44:38.352Z,2.90
2018-03-02T15:47:05.577Z,2.80
2018-03-02T15:49:32.444Z,2.80
2018-03-02T15:51:59.370Z,2.90
2018-03-02T15:54:26.195Z,2.90
2018-03-02T15:56:53.052Z,2.90
2018-03-02T15:59:19.924Z,2.80
2018-03-02T16:01:46.781Z,2.70
2018-03-02T16:04:13.844Z,2.60
2018-03-02T16:06:40.712Z,2.50
2018-03-02T16:09:07.780Z,2.50
2018-03-02T16:11:34.708Z,2.50
2018-03-02T16:14:01.590Z,2.60
2018-03-02T16:16:28.517Z,2.60
2018-03-02T16:18:55.384Z,2.70
2018-03-02T16:21:22.336Z,2.70
2018-03-02T16:23:49.220Z,2.80
2018-03-02T16:26:16.113Z,2.50
2018-03-02T16:28:43.413Z,2.40
2018-03-02T16:31:10.303Z,2.40
2018-03-02T16:33:37.124Z,2.40
2018-03-02T16:36:04.445Z,2.40
2018-03-02T16:38:31.295Z,2.40
2018-03-02T16:40:58.229Z,2.50
2018-03-02T16:43:25.180Z,2.60
2018-03-02T16:45:52.094Z,2.60
2018-03-02T16:48:19.132Z,2.60
2018-03-02T16:50:46.053Z,2.50
2018-03-02T16:53:12.896Z,2.50
2018-03-02T16:55:40.628Z,2.50
2018-03-02T16:58:07.576Z,2.40
2018-03-02T17:00:34.420Z,2.40
2018-03-02T17:03:01.278Z,2.30
2018-03-02T17:05:28.151Z,2.20
2018-03-02T17:07:55.073Z,2.20
2018-03-02T17:10:21.932Z,2.20
2018-03-02T17:12:48.825Z,2.20
2018-03-02T17:15:15.785Z,2.20
2018-03-02T17:17:42.629Z,2.20
2018-03-02T17:20:09.504Z,2.20
2018-03-02T17:22:36.424Z,2.30
2018-03-02T17:25:03.270Z,2.40
2018-03-02T17:27:30.148Z,2.40
2018-03-02T17:29:56.986Z,2.40
2018-03-02T17:32:23.852Z,2.40
2018-03-02T17:34:50.716Z,2.40
2018-03-02T17:37:17.564Z,2.40
2018-03-02T17:39:44.535Z,2.40
2018-03-02T17:42:11.484Z,2.40
2018-03-02T17:44:38.342Z,2.40
2018-03-02T17:47:05.224Z,2.30
2018-03-02T17:49:32.052Z,2.40
2018-03-02T17:51:58.909Z,2.40
2018-03-02T17:54:25.811Z,2.30
2018-03-02T17:56:52.737Z,2.40
2018-03-02T17:59:19.584Z,2.30
2018-03-02T18:01:46.456Z,2.30
2018-03-02T18:04:13.408Z,2.40
2018-03-02T18:06:40.264Z,2.40
2018-03-02T18:09:07.131Z,2.50
2018-03-02T18:11:33.969Z,2.50
2018-03-02T18:14:00.816Z,2.40
2018-03-02T18:16:27.779Z,2.40
2018-03-02T18:18:54.755Z,2.50
2018-03-02T18:21:21.596Z,2.40
2018-03-02T18:23:48.464Z,2.40
2018-03-02T18:26:15.411Z,2.30
2018-03-02T18:28:42.272Z,2.30
2018-03-02T18:31:09.132Z,2.30
2018-03-02T18:33:35.999Z,2.40
2018-03-02T18:36:02.936Z,2.30
2018-03-02T18:38:30.165Z,2.30
2018-03-02T18:40:57.420Z,2.40
2018-03-02T18:43:24.291Z,2.40
2018-03-02T18:45:51.596Z,2.50
2018-03-02T18:48:18.464Z,2.50
2018-03-02T18:50:45.440Z,2.40
2018-03-02T18:53:12.296Z,2.40
2018-03-02T18:55:39.236Z,2.40
2018-03-02T18:58:06.081Z,2.40
2018-03-02T19:00:32.947Z,2.40
2018-03-02T19:02:59.872Z,2.20
2018-03-02T19:05:27.143Z,2.10
2018-03-02T19:07:54.448Z,2.10
2018-03-02T19:10:21.297Z,2.10
2018-03-02T19:12:48.175Z,2.20
2018-03-02T19:15:15.126Z,2.20
2018-03-02T19:17:42.064Z,2.20
2018-03-02T19:20:08.908Z,2.20
2018-03-02T19:22:36.167Z,2.40
2018-03-02T19:25:03.475Z,2.40
2018-03-02T19:27:30.328Z,2.40
2018-03-02T19:29:57.267Z,2.40
2018-03-02T19:32:24.108Z,2.40
2018-03-02T19:34:51.603Z,2.30
2018-03-02T19:37:18.827Z,2.30
2018-03-02T19:39:45.731Z,2.30
2018-03-02T19:42:12.575Z,2.10
2018-03-02T19:44:39.417Z,2.00
2018-03-02T19:47:06.848Z,2.10
2018-03-02T19:49:33.692Z,2.10
2018-03-02T19:52:00.544Z,2.00
2018-03-02T19:54:27.384Z,2.00
2018-03-02T19:56:54.445Z,1.90
2018-03-02T19:59:21.312Z,1.80
2018-03-02T20:01:48.172Z,1.80
2018-03-02T20:04:15.053Z,1.70
2018-03-02T20:06:41.973Z,1.50
2018-03-02T20:09:08.812Z,1.30
2018-03-02T20:11:35.678Z,1.10
2018-03-02T20:14:02.544Z,1.00
2018-03-02T20:16:29.497Z,0.80
2018-03-02T20:18:56.468Z,0.80
2018-03-02T20:21:23.309Z,0.80
2018-03-02T20:23:50.177Z,0.80
2018-03-02T20:26:17.040Z,0.80
2018-03-02T20:28:43.904Z,0.80
2018-03-02T20:31:10.759Z,0.80
2018-03-02T20:33:37.600Z,0.70
2018-03-02T20:36:04.571Z,0.70
2018-03-02T20:38:31.514Z,0.70
2018-03-02T20:40:58.376Z,0.70
2018-03-02T20:43:25.236Z,0.80
2018-03-02T20:45:52.096Z,0.90
2018-03-02T20:48:18.949Z,0.90
2018-03-02T20:50:45.932Z,0.80
2018-03-02T20:53:12.785Z,0.90
2018-03-02T20:55:39.724Z,0.90
2018-03-02T20:58:06.693Z,0.80
2018-03-02T21:00:33.636Z,0.80
2018-03-02T21:03:00.512Z,0.90
2018-03-02T21:05:27.464Z,0.90
2018-03-02T21:07:54.308Z,0.90
2018-03-02T21:10:21.169Z,1.00
2018-03-02T21:12:48.043Z,0.90
2018-03-02T21:15:15.002Z,1.00
2018-03-02T21:17:41.841Z,0.90
2018-03-02T21:20:08.686Z,0.90
2018-03-02T21:22:35.652Z,0.90
2018-03-02T21:25:02.574Z,0.90
2018-03-02T21:27:29.388Z,0.90
2018-03-02T21:29:56.231Z,1.00
2018-03-02T21:32:23.093Z,0.90
2018-03-02T21:34:50.052Z,0.80
2018-03-02T21:37:16.924Z,0.80
2018-03-02T21:39:43.779Z,0.80
2018-03-02T21:42:10.712Z,0.80
2018-03-02T21:44:37.632Z,0.70
2018-03-02T21:47:04.944Z,0.70
2018-03-02T21:49:31.903Z,0.70
2018-03-02T21:51:58.756Z,0.60
2018-03-02T21:54:25.713Z,0.60
2018-03-02T21:56:52.680Z,0.70
2018-03-02T21:59:19.532Z,0.70
2018-03-02T22:01:46.381Z,0.60
2018-03-02T22:04:13.345Z,0.60
2018-03-02T22:06:40.249Z,0.50
2018-03-02T22:09:07.167Z,0.60
2018-03-02T22:11:34.005Z,0.50
2018-03-02T22:14:00.980Z,0.40
2018-03-02T22:16:27.824Z,0.40
2018-03-02T22:18:54.663Z,0.40
2018-03-02T22:21:21.924Z,0.30
2018-03-02T22:23:49.236Z,0.30
2018-03-02T22:26:16.112Z,0.30
2018-03-02T22:28:42.984Z,0.30
2018-03-02T22:31:09.892Z,0.40
2018-03-02T22:33:36.750Z,0.50
2018-03-02T22:36:03.615Z,0.40
2018-03-02T22:38:30.588Z,0.30
2018-03-02T22:40:57.422Z,0.30
2018-03-02T22:43:24.385Z,0.30
2018-03-02T22:45:51.228Z,0.30
2018-03-02T22:48:18.207Z,0.30
2018-03-02T22:50:45.068Z,0.30
2018-03-02T22:53:11.909Z,0.30
2018-03-02T22:55:38.795Z,0.30
2018-03-02T22:58:05.744Z,0.30
2018-03-02T23:00:32.636Z,0.30
2018-03-02T23:02:59.454Z,0.20
2018-03-02T23:05:26.293Z,0.10
2018-03-02T23:07:53.151Z,0.30
2018-03-02T23:10:20.116Z,0.30
2018-03-02T23:12:46.995Z,0.20
2018-03-02T23:15:13.944Z,0.30
2018-03-02T23:17:40.888Z,0.30
2018-03-02T23:20:07.751Z,0.20
2018-03-02T23:22:34.597Z,0.10
2018-03-02T23:25:01.557Z,0.20
2018-03-02T23:27:28.421Z,0.30
2018-03-02T23:29:55.266Z,0.40
2018-03-02T23:32:22.140Z,0.40
2018-03-02T23:34:48.984Z,0.30
2018-03-02T23:37:15.848Z,0.20
2018-03-02T23:39:42.812Z,0.20
2018-03-02T23:42:09.663Z,0.20
2018-03-02T23:44:36.516Z,0.10
2018-03-02T23:47:03.380Z,0.20
2018-03-02T23:49:30.334Z,0.30
2018-03-02T23:51:57.176Z,0.30
2018-03-02T23:54:24.059Z,0.30
2018-03-02T23:56:50.949Z,0.30
2018-03-02T23:59:17.806Z,0.40
